sensor_id;sensor_type;location;lat;lon;timestamp;P1;durP1;ratioP1;P2;durP2;ratioP2
15553;SDS011;7878;44.632;10.942;2024-01-06T00:01:29;3.30;;;3.00;;
15553;SDS011;7878;44.632;10.942;2024-01-06T00:03:54;4.03;;;3.60;;
15553;SDS011;7878;44.632;10.942;2024-01-06T00:06:20;3.50;;;3.20;;
15553;SDS011;7878;44.632;10.942;2024-01-06T00:08:46;3.27;;;2.97;;
15553;SDS011;7878;44.632;10.942;2024-01-06T00:11:18;3.00;;;2.70;;
15553;SDS011;7878;44.632;10.942;2024-01-06T00:13:45;3.67;;;3.00;;
15553;SDS011;7878;44.632;10.942;2024-01-06T00:16:11;2.90;;;2.57;;
15553;SDS011;7878;44.632;10.942;2024-01-06T00:18:36;3.17;;;2.63;;
15553;SDS011;7878;44.632;10.942;2024-01-06T00:21:02;3.00;;;2.70;;
15553;SDS011;7878;44.632;10.942;2024-01-06T00:23:28;2.87;;;2.60;;
15553;SDS011;7878;44.632;10.942;2024-01-06T00:25:53;2.97;;;2.57;;
15553;SDS011;7878;44.632;10.942;2024-01-06T00:28:19;2.90;;;2.60;;
15553;SDS011;7878;44.632;10.942;2024-01-06T00:30:45;3.07;;;2.87;;
15553;SDS011;7878;44.632;10.942;2024-01-06T00:33:11;2.70;;;2.50;;
15553;SDS011;7878;44.632;10.942;2024-01-06T00:35:37;3.37;;;2.70;;
15553;SDS011;7878;44.632;10.942;2024-01-06T00:38:03;3.20;;;2.90;;
15553;SDS011;7878;44.632;10.942;2024-01-06T00:40:28;3.73;;;2.77;;
15553;SDS011;7878;44.632;10.942;2024-01-06T00:42:54;4.97;;;3.20;;
15553;SDS011;7878;44.632;10.942;2024-01-06T00:45:20;3.27;;;2.97;;
15553;SDS011;7878;44.632;10.942;2024-01-06T00:47:46;2.53;;;2.33;;
15553;SDS011;7878;44.632;10.942;2024-01-06T00:50:11;3.60;;;2.83;;
15553;SDS011;7878;44.632;10.942;2024-01-06T00:52:37;3.13;;;2.60;;
15553;SDS011;7878;44.632;10.942;2024-01-06T00:55:03;3.63;;;2.50;;
15553;SDS011;7878;44.632;10.942;2024-01-06T00:57:29;2.63;;;2.43;;
15553;SDS011;7878;44.632;10.942;2024-01-06T00:59:55;3.50;;;2.50;;
15553;SDS011;7878;44.632;10.942;2024-01-06T01:02:21;2.80;;;2.60;;
15553;SDS011;7878;44.632;10.942;2024-01-06T01:04:47;4.13;;;2.70;;
15553;SDS011;7878;44.632;10.942;2024-01-06T01:07:12;2.60;;;2.40;;
15553;SDS011;7878;44.632;10.942;2024-01-06T01:09:38;2.70;;;2.30;;
15553;SDS011;7878;44.632;10.942;2024-01-06T01:12:04;2.60;;;2.30;;
15553;SDS011;7878;44.632;10.942;2024-01-06T01:14:30;2.63;;;2.30;;
15553;SDS011;7878;44.632;10.942;2024-01-06T01:16:55;2.37;;;2.17;;
15553;SDS011;7878;44.632;10.942;2024-01-06T01:19:21;2.13;;;1.87;;
15553;SDS011;7878;44.632;10.942;2024-01-06T01:21:46;2.13;;;1.93;;
15553;SDS011;7878;44.632;10.942;2024-01-06T01:24:12;3.13;;;1.60;;
15553;SDS011;7878;44.632;10.942;2024-01-06T01:26:38;1.83;;;1.70;;
15553;SDS011;7878;44.632;10.942;2024-01-06T01:29:03;1.70;;;1.60;;
15553;SDS011;7878;44.632;10.942;2024-01-06T01:31:29;1.97;;;1.67;;
15553;SDS011;7878;44.632;10.942;2024-01-06T01:33:55;1.90;;;1.70;;
15553;SDS011;7878;44.632;10.942;2024-01-06T01:36:20;1.50;;;1.40;;
15553;SDS011;7878;44.632;10.942;2024-01-06T01:38:46;2.17;;;1.80;;
15553;SDS011;7878;44.632;10.942;2024-01-06T01:41:12;1.67;;;1.57;;
15553;SDS011;7878;44.632;10.942;2024-01-06T01:43:37;1.60;;;1.50;;
15553;SDS011;7878;44.632;10.942;2024-01-06T01:46:03;1.60;;;1.50;;
15553;SDS011;7878;44.632;10.942;2024-01-06T01:48:29;2.53;;;1.40;;
15553;SDS011;7878;44.632;10.942;2024-01-06T01:50:56;1.63;;;1.53;;
15553;SDS011;7878;44.632;10.942;2024-01-06T01:53:22;1.60;;;1.50;;
15553;SDS011;7878;44.632;10.942;2024-01-06T01:55:49;1.67;;;1.57;;
15553;SDS011;7878;44.632;10.942;2024-01-06T01:58:15;1.43;;;1.33;;
15553;SDS011;7878;44.632;10.942;2024-01-06T02:00:41;1.90;;;1.70;;
15553;SDS011;7878;44.632;10.942;2024-01-06T02:03:07;1.80;;;1.70;;
15553;SDS011;7878;44.632;10.942;2024-01-06T02:05:34;3.47;;;1.80;;
15553;SDS011;7878;44.632;10.942;2024-01-06T02:08:00;1.63;;;1.53;;
15553;SDS011;7878;44.632;10.942;2024-01-06T02:10:25;1.50;;;1.40;;
15553;SDS011;7878;44.632;10.942;2024-01-06T02:12:51;1.93;;;1.77;;
15553;SDS011;7878;44.632;10.942;2024-01-06T02:15:17;3.03;;;1.60;;
15553;SDS011;7878;44.632;10.942;2024-01-06T02:17:44;1.93;;;1.80;;
15553;SDS011;7878;44.632;10.942;2024-01-06T02:20:10;1.83;;;1.73;;
15553;SDS011;7878;44.632;10.942;2024-01-06T02:22:38;2.30;;;1.70;;
15553;SDS011;7878;44.632;10.942;2024-01-06T02:25:04;2.47;;;2.27;;
15553;SDS011;7878;44.632;10.942;2024-01-06T02:27:37;4.00;;;2.20;;
15553;SDS011;7878;44.632;10.942;2024-01-06T02:30:03;3.03;;;2.73;;
15553;SDS011;7878;44.632;10.942;2024-01-06T02:32:30;3.20;;;2.90;;
15553;SDS011;7878;44.632;10.942;2024-01-06T02:34:55;3.20;;;2.90;;
15553;SDS011;7878;44.632;10.942;2024-01-06T02:37:21;2.77;;;2.57;;
15553;SDS011;7878;44.632;10.942;2024-01-06T02:39:47;4.60;;;2.77;;
15553;SDS011;7878;44.632;10.942;2024-01-06T02:42:12;4.03;;;2.97;;
15553;SDS011;7878;44.632;10.942;2024-01-06T02:44:38;3.50;;;3.13;;
15553;SDS011;7878;44.632;10.942;2024-01-06T02:47:04;5.03;;;2.93;;
15553;SDS011;7878;44.632;10.942;2024-01-06T02:49:30;3.70;;;3.27;;
15553;SDS011;7878;44.632;10.942;2024-01-06T02:51:55;3.20;;;2.80;;
15553;SDS011;7878;44.632;10.942;2024-01-06T02:54:21;3.47;;;2.90;;
15553;SDS011;7878;44.632;10.942;2024-01-06T02:56:47;3.87;;;3.20;;
15553;SDS011;7878;44.632;10.942;2024-01-06T02:59:12;3.07;;;2.83;;
15553;SDS011;7878;44.632;10.942;2024-01-06T03:01:38;4.63;;;3.00;;
15553;SDS011;7878;44.632;10.942;2024-01-06T03:04:04;5.00;;;2.63;;
15553;SDS011;7878;44.632;10.942;2024-01-06T03:06:29;2.50;;;2.30;;
15553;SDS011;7878;44.632;10.942;2024-01-06T03:08:55;2.70;;;2.50;;
15553;SDS011;7878;44.632;10.942;2024-01-06T03:11:20;3.37;;;2.47;;
15553;SDS011;7878;44.632;10.942;2024-01-06T03:13:46;3.20;;;2.50;;
15553;SDS011;7878;44.632;10.942;2024-01-06T03:16:12;2.90;;;2.70;;
15553;SDS011;7878;44.632;10.942;2024-01-06T03:18:38;2.60;;;2.40;;
15553;SDS011;7878;44.632;10.942;2024-01-06T03:21:03;3.03;;;2.53;;
15553;SDS011;7878;44.632;10.942;2024-01-06T03:23:29;2.90;;;2.60;;
15553;SDS011;7878;44.632;10.942;2024-01-06T03:25:55;4.50;;;2.53;;
15553;SDS011;7878;44.632;10.942;2024-01-06T03:28:20;4.90;;;2.50;;
15553;SDS011;7878;44.632;10.942;2024-01-06T03:30:46;2.63;;;2.43;;
15553;SDS011;7878;44.632;10.942;2024-01-06T03:33:12;4.27;;;2.87;;
15553;SDS011;7878;44.632;10.942;2024-01-06T03:35:37;3.00;;;2.70;;
15553;SDS011;7878;44.632;10.942;2024-01-06T03:38:03;3.57;;;2.50;;
15553;SDS011;7878;44.632;10.942;2024-01-06T03:40:29;3.13;;;2.50;;
15553;SDS011;7878;44.632;10.942;2024-01-06T03:42:54;5.73;;;2.77;;
15553;SDS011;7878;44.632;10.942;2024-01-06T03:45:20;2.80;;;2.60;;
15553;SDS011;7878;44.632;10.942;2024-01-06T03:47:45;2.63;;;2.43;;
15553;SDS011;7878;44.632;10.942;2024-01-06T03:50:11;2.83;;;2.33;;
15553;SDS011;7878;44.632;10.942;2024-01-06T03:52:38;2.57;;;2.37;;
15553;SDS011;7878;44.632;10.942;2024-01-06T03:55:03;4.83;;;2.43;;
15553;SDS011;7878;44.632;10.942;2024-01-06T03:57:30;2.30;;;2.10;;
15553;SDS011;7878;44.632;10.942;2024-01-06T03:59:56;2.70;;;2.50;;
15553;SDS011;7878;44.632;10.942;2024-01-06T04:02:22;2.77;;;2.57;;
15553;SDS011;7878;44.632;10.942;2024-01-06T04:04:47;2.60;;;2.40;;
15553;SDS011;7878;44.632;10.942;2024-01-06T04:07:13;5.20;;;2.57;;
15553;SDS011;7878;44.632;10.942;2024-01-06T04:09:41;2.73;;;2.20;;
15553;SDS011;7878;44.632;10.942;2024-01-06T04:12:08;2.37;;;2.17;;
15553;SDS011;7878;44.632;10.942;2024-01-06T04:14:33;3.40;;;2.20;;
15553;SDS011;7878;44.632;10.942;2024-01-06T04:16:59;2.07;;;1.93;;
15553;SDS011;7878;44.632;10.942;2024-01-06T04:19:25;2.17;;;1.97;;
15553;SDS011;7878;44.632;10.942;2024-01-06T04:21:50;2.73;;;2.50;;
15553;SDS011;7878;44.632;10.942;2024-01-06T04:24:16;5.20;;;2.10;;
15553;SDS011;7878;44.632;10.942;2024-01-06T04:26:41;2.33;;;2.13;;
15553;SDS011;7878;44.632;10.942;2024-01-06T04:29:10;3.17;;;2.20;;
15553;SDS011;7878;44.632;10.942;2024-01-06T04:31:35;2.03;;;1.93;;
15553;SDS011;7878;44.632;10.942;2024-01-06T04:34:01;2.03;;;1.93;;
15553;SDS011;7878;44.632;10.942;2024-01-06T04:36:28;2.13;;;1.93;;
15553;SDS011;7878;44.632;10.942;2024-01-06T04:38:54;2.10;;;2.00;;
15553;SDS011;7878;44.632;10.942;2024-01-06T04:41:20;3.67;;;2.20;;
15553;SDS011;7878;44.632;10.942;2024-01-06T04:43:46;1.77;;;1.67;;
15553;SDS011;7878;44.632;10.942;2024-01-06T04:46:12;2.13;;;2.00;;
15553;SDS011;7878;44.632;10.942;2024-01-06T04:48:39;2.27;;;2.17;;
15553;SDS011;7878;44.632;10.942;2024-01-06T04:51:05;2.17;;;2.07;;
15553;SDS011;7878;44.632;10.942;2024-01-06T04:53:35;2.27;;;2.07;;
15553;SDS011;7878;44.632;10.942;2024-01-06T04:56:01;2.23;;;2.03;;
15553;SDS011;7878;44.632;10.942;2024-01-06T04:58:26;4.23;;;2.00;;
15553;SDS011;7878;44.632;10.942;2024-01-06T05:00:52;2.10;;;2.00;;
15553;SDS011;7878;44.632;10.942;2024-01-06T05:03:18;2.83;;;2.40;;
15553;SDS011;7878;44.632;10.942;2024-01-06T05:05:44;2.80;;;2.47;;
15553;SDS011;7878;44.632;10.942;2024-01-06T05:08:09;2.57;;;2.37;;
15553;SDS011;7878;44.632;10.942;2024-01-06T05:10:35;2.43;;;2.23;;
15553;SDS011;7878;44.632;10.942;2024-01-06T05:13:01;3.57;;;2.20;;
15553;SDS011;7878;44.632;10.942;2024-01-06T05:15:26;2.80;;;2.60;;
15553;SDS011;7878;44.632;10.942;2024-01-06T05:17:52;2.30;;;2.10;;
15553;SDS011;7878;44.632;10.942;2024-01-06T05:20:18;2.80;;;2.60;;
15553;SDS011;7878;44.632;10.942;2024-01-06T05:22:43;2.60;;;2.40;;
15553;SDS011;7878;44.632;10.942;2024-01-06T05:25:09;3.50;;;2.47;;
15553;SDS011;7878;44.632;10.942;2024-01-06T05:27:35;2.30;;;2.10;;
15553;SDS011;7878;44.632;10.942;2024-01-06T05:30:00;3.23;;;2.50;;
15553;SDS011;7878;44.632;10.942;2024-01-06T05:32:26;2.70;;;2.50;;
15553;SDS011;7878;44.632;10.942;2024-01-06T05:34:52;3.60;;;3.30;;
15553;SDS011;7878;44.632;10.942;2024-01-06T05:37:18;3.57;;;2.47;;
15553;SDS011;7878;44.632;10.942;2024-01-06T05:39:43;2.50;;;2.30;;
15553;SDS011;7878;44.632;10.942;2024-01-06T05:42:09;5.00;;;2.50;;
15553;SDS011;7878;44.632;10.942;2024-01-06T05:44:39;2.57;;;2.37;;
15553;SDS011;7878;44.632;10.942;2024-01-06T05:47:06;2.40;;;2.20;;
15553;SDS011;7878;44.632;10.942;2024-01-06T05:49:33;2.50;;;2.30;;
15553;SDS011;7878;44.632;10.942;2024-01-06T05:51:58;2.80;;;2.60;;
15553;SDS011;7878;44.632;10.942;2024-01-06T05:54:24;2.33;;;2.23;;
15553;SDS011;7878;44.632;10.942;2024-01-06T05:56:50;2.70;;;2.50;;
15553;SDS011;7878;44.632;10.942;2024-01-06T05:59:16;2.93;;;2.30;;
15553;SDS011;7878;44.632;10.942;2024-01-06T06:01:41;3.07;;;2.87;;
15553;SDS011;7878;44.632;10.942;2024-01-06T06:04:08;2.83;;;2.47;;
15553;SDS011;7878;44.632;10.942;2024-01-06T06:06:35;3.00;;;2.80;;
15553;SDS011;7878;44.632;10.942;2024-01-06T06:09:00;2.90;;;2.70;;
15553;SDS011;7878;44.632;10.942;2024-01-06T06:11:26;3.37;;;2.80;;
15553;SDS011;7878;44.632;10.942;2024-01-06T06:13:52;3.27;;;2.97;;
15553;SDS011;7878;44.632;10.942;2024-01-06T06:16:17;3.00;;;2.80;;
15553;SDS011;7878;44.632;10.942;2024-01-06T06:18:43;3.47;;;3.20;;
15553;SDS011;7878;44.632;10.942;2024-01-06T06:21:09;4.27;;;3.50;;
15553;SDS011;7878;44.632;10.942;2024-01-06T06:23:35;3.50;;;3.20;;
15553;SDS011;7878;44.632;10.942;2024-01-06T06:26:06;3.97;;;3.67;;
15553;SDS011;7878;44.632;10.942;2024-01-06T06:28:33;3.00;;;2.80;;
15553;SDS011;7878;44.632;10.942;2024-01-06T06:30:59;3.43;;;3.13;;
15553;SDS011;7878;44.632;10.942;2024-01-06T06:33:26;3.97;;;3.57;;
15553;SDS011;7878;44.632;10.942;2024-01-06T06:35:52;3.43;;;3.13;;
15553;SDS011;7878;44.632;10.942;2024-01-06T06:38:17;3.37;;;3.07;;
15553;SDS011;7878;44.632;10.942;2024-01-06T06:40:43;3.70;;;3.40;;
15553;SDS011;7878;44.632;10.942;2024-01-06T06:43:09;3.20;;;3.00;;
15553;SDS011;7878;44.632;10.942;2024-01-06T06:45:34;3.93;;;3.60;;
15553;SDS011;7878;44.632;10.942;2024-01-06T06:48:00;3.63;;;3.30;;
15553;SDS011;7878;44.632;10.942;2024-01-06T06:50:26;3.60;;;3.30;;
15553;SDS011;7878;44.632;10.942;2024-01-06T06:52:51;3.40;;;3.10;;
15553;SDS011;7878;44.632;10.942;2024-01-06T06:55:17;3.50;;;3.03;;
15553;SDS011;7878;44.632;10.942;2024-01-06T06:57:43;4.23;;;3.10;;
15553;SDS011;7878;44.632;10.942;2024-01-06T07:00:09;3.73;;;3.40;;
15553;SDS011;7878;44.632;10.942;2024-01-06T07:02:35;3.53;;;3.23;;
15553;SDS011;7878;44.632;10.942;2024-01-06T07:05:01;3.37;;;3.13;;
15553;SDS011;7878;44.632;10.942;2024-01-06T07:07:27;3.60;;;3.30;;
15553;SDS011;7878;44.632;10.942;2024-01-06T07:09:52;3.57;;;3.27;;
15553;SDS011;7878;44.632;10.942;2024-01-06T07:12:19;3.43;;;3.13;;
15553;SDS011;7878;44.632;10.942;2024-01-06T07:14:44;3.40;;;3.10;;
15553;SDS011;7878;44.632;10.942;2024-01-06T07:17:10;5.83;;;3.27;;
15553;SDS011;7878;44.632;10.942;2024-01-06T07:19:36;4.10;;;3.70;;
15553;SDS011;7878;44.632;10.942;2024-01-06T07:22:03;3.60;;;3.30;;
15553;SDS011;7878;44.632;10.942;2024-01-06T07:24:30;3.50;;;3.20;;
15553;SDS011;7878;44.632;10.942;2024-01-06T07:26:55;4.90;;;3.27;;
15553;SDS011;7878;44.632;10.942;2024-01-06T07:29:21;3.83;;;3.53;;
15553;SDS011;7878;44.632;10.942;2024-01-06T07:31:47;3.60;;;3.30;;
15553;SDS011;7878;44.632;10.942;2024-01-06T07:34:12;3.00;;;2.80;;
15553;SDS011;7878;44.632;10.942;2024-01-06T07:36:38;3.10;;;2.90;;
15553;SDS011;7878;44.632;10.942;2024-01-06T07:39:04;3.50;;;3.20;;
15553;SDS011;7878;44.632;10.942;2024-01-06T07:41:31;4.57;;;2.97;;
15553;SDS011;7878;44.632;10.942;2024-01-06T07:43:57;3.67;;;3.37;;
15553;SDS011;7878;44.632;10.942;2024-01-06T07:46:23;3.27;;;2.97;;
15553;SDS011;7878;44.632;10.942;2024-01-06T07:48:49;4.13;;;3.00;;
15553;SDS011;7878;44.632;10.942;2024-01-06T07:51:14;2.90;;;2.70;;
15553;SDS011;7878;44.632;10.942;2024-01-06T07:53:40;4.83;;;3.20;;
15553;SDS011;7878;44.632;10.942;2024-01-06T07:56:07;2.93;;;2.63;;
15553;SDS011;7878;44.632;10.942;2024-01-06T07:58:33;2.87;;;2.67;;
15553;SDS011;7878;44.632;10.942;2024-01-06T08:00:59;3.40;;;3.10;;
15553;SDS011;7878;44.632;10.942;2024-01-06T08:03:24;3.23;;;2.93;;
15553;SDS011;7878;44.632;10.942;2024-01-06T08:05:50;3.50;;;3.20;;
15553;SDS011;7878;44.632;10.942;2024-01-06T08:08:16;3.40;;;3.00;;
15553;SDS011;7878;44.632;10.942;2024-01-06T08:10:43;3.30;;;3.00;;
15553;SDS011;7878;44.632;10.942;2024-01-06T08:13:09;3.10;;;2.90;;
15553;SDS011;7878;44.632;10.942;2024-01-06T08:15:35;3.70;;;3.40;;
15553;SDS011;7878;44.632;10.942;2024-01-06T08:18:00;5.30;;;3.13;;
15553;SDS011;7878;44.632;10.942;2024-01-06T08:20:26;3.43;;;3.13;;
15553;SDS011;7878;44.632;10.942;2024-01-06T08:22:52;3.40;;;3.10;;
15553;SDS011;7878;44.632;10.942;2024-01-06T08:25:18;5.33;;;4.00;;
15553;SDS011;7878;44.632;10.942;2024-01-06T08:27:43;4.90;;;3.27;;
15553;SDS011;7878;44.632;10.942;2024-01-06T08:30:09;3.27;;;2.97;;
15553;SDS011;7878;44.632;10.942;2024-01-06T08:32:35;3.60;;;3.30;;
15553;SDS011;7878;44.632;10.942;2024-01-06T08:35:01;3.77;;;2.90;;
15553;SDS011;7878;44.632;10.942;2024-01-06T08:37:27;4.60;;;3.20;;
15553;SDS011;7878;44.632;10.942;2024-01-06T08:39:53;3.50;;;3.20;;
15553;SDS011;7878;44.632;10.942;2024-01-06T08:42:18;4.07;;;3.37;;
15553;SDS011;7878;44.632;10.942;2024-01-06T08:44:44;5.40;;;4.90;;
15553;SDS011;7878;44.632;10.942;2024-01-06T08:47:10;7.93;;;3.97;;
15553;SDS011;7878;44.632;10.942;2024-01-06T08:49:35;5.23;;;4.10;;
15553;SDS011;7878;44.632;10.942;2024-01-06T08:52:01;3.97;;;3.50;;
15553;SDS011;7878;44.632;10.942;2024-01-06T08:54:27;5.30;;;4.40;;
15553;SDS011;7878;44.632;10.942;2024-01-06T08:56:52;6.03;;;4.30;;
15553;SDS011;7878;44.632;10.942;2024-01-06T08:59:18;5.63;;;3.80;;
15553;SDS011;7878;44.632;10.942;2024-01-06T09:01:45;5.53;;;4.20;;
15553;SDS011;7878;44.632;10.942;2024-01-06T09:04:11;5.77;;;4.17;;
15553;SDS011;7878;44.632;10.942;2024-01-06T09:06:38;5.00;;;4.50;;
15553;SDS011;7878;44.632;10.942;2024-01-06T09:09:04;10.23;;;4.77;;
15553;SDS011;7878;44.632;10.942;2024-01-06T09:11:30;6.43;;;5.17;;
15553;SDS011;7878;44.632;10.942;2024-01-06T09:13:56;5.33;;;4.80;;
15553;SDS011;7878;44.632;10.942;2024-01-06T09:16:22;7.07;;;5.47;;
15553;SDS011;7878;44.632;10.942;2024-01-06T09:18:48;10.63;;;5.50;;
15553;SDS011;7878;44.632;10.942;2024-01-06T09:21:14;6.70;;;5.33;;
15553;SDS011;7878;44.632;10.942;2024-01-06T09:23:40;5.87;;;5.37;;
15553;SDS011;7878;44.632;10.942;2024-01-06T09:26:06;8.33;;;5.30;;
15553;SDS011;7878;44.632;10.942;2024-01-06T09:28:32;6.87;;;4.83;;
15553;SDS011;7878;44.632;10.942;2024-01-06T09:30:57;5.93;;;5.30;;
15553;SDS011;7878;44.632;10.942;2024-01-06T09:33:23;6.40;;;5.80;;
15553;SDS011;7878;44.632;10.942;2024-01-06T09:35:49;5.77;;;4.40;;
15553;SDS011;7878;44.632;10.942;2024-01-06T09:38:15;5.43;;;4.80;;
15553;SDS011;7878;44.632;10.942;2024-01-06T09:40:43;6.13;;;5.50;;
15553;SDS011;7878;44.632;10.942;2024-01-06T09:43:10;5.80;;;5.30;;
15553;SDS011;7878;44.632;10.942;2024-01-06T09:45:36;7.70;;;5.10;;
15553;SDS011;7878;44.632;10.942;2024-01-06T09:48:12;7.40;;;4.93;;
15553;SDS011;7878;44.632;10.942;2024-01-06T09:50:40;8.33;;;4.93;;
15553;SDS011;7878;44.632;10.942;2024-01-06T09:53:07;5.53;;;4.60;;
15553;SDS011;7878;44.632;10.942;2024-01-06T09:55:36;5.33;;;4.77;;
15553;SDS011;7878;44.632;10.942;2024-01-06T09:58:02;5.70;;;4.67;;
15553;SDS011;7878;44.632;10.942;2024-01-06T10:00:28;6.83;;;4.73;;
15553;SDS011;7878;44.632;10.942;2024-01-06T10:02:54;8.00;;;4.77;;
15553;SDS011;7878;44.632;10.942;2024-01-06T10:05:23;6.07;;;5.17;;
15553;SDS011;7878;44.632;10.942;2024-01-06T10:07:48;6.47;;;5.87;;
15553;SDS011;7878;44.632;10.942;2024-01-06T10:10:15;10.67;;;6.07;;
15553;SDS011;7878;44.632;10.942;2024-01-06T10:12:41;7.20;;;5.90;;
15553;SDS011;7878;44.632;10.942;2024-01-06T10:15:08;7.47;;;6.10;;
15553;SDS011;7878;44.632;10.942;2024-01-06T10:17:37;7.60;;;6.90;;
15553;SDS011;7878;44.632;10.942;2024-01-06T10:20:11;9.83;;;7.63;;
15553;SDS011;7878;44.632;10.942;2024-01-06T10:22:37;8.13;;;6.60;;
15553;SDS011;7878;44.632;10.942;2024-01-06T10:25:05;7.93;;;5.63;;
15553;SDS011;7878;44.632;10.942;2024-01-06T10:27:39;5.53;;;5.00;;
15553;SDS011;7878;44.632;10.942;2024-01-06T10:30:06;9.10;;;6.50;;
15553;SDS011;7878;44.632;10.942;2024-01-06T10:32:32;9.50;;;6.10;;
15553;SDS011;7878;44.632;10.942;2024-01-06T10:35:02;5.53;;;4.60;;
15553;SDS011;7878;44.632;10.942;2024-01-06T10:37:29;4.43;;;4.03;;
15553;SDS011;7878;44.632;10.942;2024-01-06T10:40:16;4.77;;;4.30;;
15553;SDS011;7878;44.632;10.942;2024-01-06T10:42:42;4.50;;;4.03;;
15553;SDS011;7878;44.632;10.942;2024-01-06T10:45:09;3.70;;;3.40;;
15553;SDS011;7878;44.632;10.942;2024-01-06T10:47:37;4.50;;;4.10;;
15553;SDS011;7878;44.632;10.942;2024-01-06T10:50:04;4.13;;;3.63;;
15553;SDS011;7878;44.632;10.942;2024-01-06T10:52:31;4.40;;;3.53;;
15553;SDS011;7878;44.632;10.942;2024-01-06T10:54:56;4.00;;;3.70;;
15553;SDS011;7878;44.632;10.942;2024-01-06T10:57:23;3.80;;;3.20;;
15553;SDS011;7878;44.632;10.942;2024-01-06T10:59:50;3.80;;;3.40;;
15553;SDS011;7878;44.632;10.942;2024-01-06T11:02:17;4.10;;;3.70;;
15553;SDS011;7878;44.632;10.942;2024-01-06T11:04:44;4.83;;;4.27;;
15553;SDS011;7878;44.632;10.942;2024-01-06T11:07:11;4.93;;;4.10;;
15553;SDS011;7878;44.632;10.942;2024-01-06T11:09:39;4.40;;;4.00;;
15553;SDS011;7878;44.632;10.942;2024-01-06T11:12:11;8.90;;;3.90;;
15553;SDS011;7878;44.632;10.942;2024-01-06T11:14:38;4.37;;;3.97;;
15553;SDS011;7878;44.632;10.942;2024-01-06T11:17:04;5.40;;;4.33;;
15553;SDS011;7878;44.632;10.942;2024-01-06T11:22:21;4.63;;;4.00;;
15553;SDS011;7878;44.632;10.942;2024-01-06T11:25:04;6.13;;;3.93;;
15553;SDS011;7878;44.632;10.942;2024-01-06T11:27:31;4.40;;;4.00;;
15553;SDS011;7878;44.632;10.942;2024-01-06T11:30:01;3.90;;;3.60;;
15553;SDS011;7878;44.632;10.942;2024-01-06T11:32:31;5.87;;;4.60;;
15553;SDS011;7878;44.632;10.942;2024-01-06T11:40:51;4.83;;;4.40;;
15553;SDS011;7878;44.632;10.942;2024-01-06T11:43:08;5.30;;;3.90;;
15553;SDS011;7878;44.632;10.942;2024-01-06T11:45:35;4.47;;;3.93;;
15553;SDS011;7878;44.632;10.942;2024-01-06T11:48:04;7.83;;;6.67;;
15553;SDS011;7878;44.632;10.942;2024-01-06T11:50:31;4.90;;;4.10;;
15553;SDS011;7878;44.632;10.942;2024-01-06T11:52:58;5.57;;;4.90;;
15553;SDS011;7878;44.632;10.942;2024-01-06T11:55:26;4.97;;;4.40;;
15553;SDS011;7878;44.632;10.942;2024-01-06T11:57:57;5.20;;;4.70;;
15553;SDS011;7878;44.632;10.942;2024-01-06T12:00:27;5.10;;;4.70;;
15553;SDS011;7878;44.632;10.942;2024-01-06T12:02:59;5.53;;;4.57;;
15553;SDS011;7878;44.632;10.942;2024-01-06T12:05:26;6.00;;;4.43;;
15553;SDS011;7878;44.632;10.942;2024-01-06T12:07:55;5.13;;;4.63;;
15553;SDS011;7878;44.632;10.942;2024-01-06T12:10:22;5.67;;;4.63;;
15553;SDS011;7878;44.632;10.942;2024-01-06T12:13:07;6.40;;;5.17;;
15553;SDS011;7878;44.632;10.942;2024-01-06T12:15:35;5.03;;;4.47;;
15553;SDS011;7878;44.632;10.942;2024-01-06T12:18:04;4.57;;;4.17;;
15553;SDS011;7878;44.632;10.942;2024-01-06T12:20:30;5.23;;;4.73;;
15553;SDS011;7878;44.632;10.942;2024-01-06T12:22:57;6.23;;;5.13;;
15553;SDS011;7878;44.632;10.942;2024-01-06T12:25:23;7.07;;;4.53;;
15553;SDS011;7878;44.632;10.942;2024-01-06T12:27:50;5.40;;;4.37;;
15553;SDS011;7878;44.632;10.942;2024-01-06T12:30:18;4.60;;;4.20;;
15553;SDS011;7878;44.632;10.942;2024-01-06T12:32:45;5.53;;;4.60;;
15553;SDS011;7878;44.632;10.942;2024-01-06T12:35:13;7.03;;;5.60;;
15553;SDS011;7878;44.632;10.942;2024-01-06T12:37:41;10.37;;;7.47;;
15553;SDS011;7878;44.632;10.942;2024-01-06T12:40:08;17.40;;;11.67;;
15553;SDS011;7878;44.632;10.942;2024-01-06T12:42:34;10.33;;;7.27;;
15553;SDS011;7878;44.632;10.942;2024-01-06T12:45:01;8.20;;;6.10;;
15553;SDS011;7878;44.632;10.942;2024-01-06T12:47:27;5.03;;;4.47;;
15553;SDS011;7878;44.632;10.942;2024-01-06T12:49:53;7.50;;;5.97;;
15553;SDS011;7878;44.632;10.942;2024-01-06T12:52:19;9.23;;;6.83;;
15553;SDS011;7878;44.632;10.942;2024-01-06T12:54:44;21.10;;;11.70;;
15553;SDS011;7878;44.632;10.942;2024-01-06T12:57:10;10.33;;;6.47;;
15553;SDS011;7878;44.632;10.942;2024-01-06T12:59:36;7.00;;;5.50;;
15553;SDS011;7878;44.632;10.942;2024-01-06T13:02:02;8.90;;;5.77;;
15553;SDS011;7878;44.632;10.942;2024-01-06T13:04:28;6.17;;;5.53;;
15553;SDS011;7878;44.632;10.942;2024-01-06T13:06:53;5.07;;;4.57;;
15553;SDS011;7878;44.632;10.942;2024-01-06T13:09:19;5.67;;;4.90;;
15553;SDS011;7878;44.632;10.942;2024-01-06T13:11:48;5.07;;;4.67;;
15553;SDS011;7878;44.632;10.942;2024-01-06T13:14:15;6.83;;;6.13;;
15553;SDS011;7878;44.632;10.942;2024-01-06T13:16:41;8.20;;;6.97;;
15553;SDS011;7878;44.632;10.942;2024-01-06T13:19:07;8.60;;;7.17;;
15553;SDS011;7878;44.632;10.942;2024-01-06T13:21:32;8.53;;;5.73;;
15553;SDS011;7878;44.632;10.942;2024-01-06T13:24:00;7.90;;;6.00;;
15553;SDS011;7878;44.632;10.942;2024-01-06T13:26:27;13.30;;;8.83;;
15553;SDS011;7878;44.632;10.942;2024-01-06T13:28:53;5.50;;;5.00;;
15553;SDS011;7878;44.632;10.942;2024-01-06T13:31:19;10.80;;;6.23;;
15553;SDS011;7878;44.632;10.942;2024-01-06T13:33:45;10.17;;;7.80;;
15553;SDS011;7878;44.632;10.942;2024-01-06T13:36:11;5.43;;;4.90;;
15553;SDS011;7878;44.632;10.942;2024-01-06T13:38:37;6.10;;;5.37;;
15553;SDS011;7878;44.632;10.942;2024-01-06T13:41:03;6.17;;;5.57;;
15553;SDS011;7878;44.632;10.942;2024-01-06T13:43:29;6.87;;;5.77;;
15553;SDS011;7878;44.632;10.942;2024-01-06T13:45:57;5.67;;;5.07;;
15553;SDS011;7878;44.632;10.942;2024-01-06T13:48:22;6.97;;;5.57;;
15553;SDS011;7878;44.632;10.942;2024-01-06T13:50:48;8.73;;;6.03;;
15553;SDS011;7878;44.632;10.942;2024-01-06T13:53:14;8.53;;;7.00;;
15553;SDS011;7878;44.632;10.942;2024-01-06T13:55:40;7.70;;;6.90;;
15553;SDS011;7878;44.632;10.942;2024-01-06T13:58:06;6.17;;;5.27;;
15553;SDS011;7878;44.632;10.942;2024-01-06T14:00:34;5.70;;;5.10;;
15553;SDS011;7878;44.632;10.942;2024-01-06T14:03:00;6.77;;;5.07;;
15553;SDS011;7878;44.632;10.942;2024-01-06T14:05:26;9.43;;;7.90;;
15553;SDS011;7878;44.632;10.942;2024-01-06T14:07:52;7.10;;;5.93;;
15553;SDS011;7878;44.632;10.942;2024-01-06T14:10:18;5.60;;;4.97;;
15553;SDS011;7878;44.632;10.942;2024-01-06T14:12:44;7.13;;;5.27;;
15553;SDS011;7878;44.632;10.942;2024-01-06T14:15:10;8.30;;;7.27;;
15553;SDS011;7878;44.632;10.942;2024-01-06T14:17:36;5.27;;;4.77;;
15553;SDS011;7878;44.632;10.942;2024-01-06T14:20:02;6.33;;;5.20;;
15553;SDS011;7878;44.632;10.942;2024-01-06T14:22:29;4.93;;;4.47;;
15553;SDS011;7878;44.632;10.942;2024-01-06T14:24:55;8.73;;;5.67;;
15553;SDS011;7878;44.632;10.942;2024-01-06T14:27:20;8.40;;;6.60;;
15553;SDS011;7878;44.632;10.942;2024-01-06T14:29:47;6.87;;;5.60;;
15553;SDS011;7878;44.632;10.942;2024-01-06T14:32:13;5.47;;;4.80;;
15553;SDS011;7878;44.632;10.942;2024-01-06T14:34:39;5.10;;;4.60;;
15553;SDS011;7878;44.632;10.942;2024-01-06T14:37:05;6.43;;;5.47;;
15553;SDS011;7878;44.632;10.942;2024-01-06T14:39:30;4.83;;;3.90;;
15553;SDS011;7878;44.632;10.942;2024-01-06T14:41:59;5.13;;;4.13;;
15553;SDS011;7878;44.632;10.942;2024-01-06T14:44:25;4.93;;;4.43;;
15553;SDS011;7878;44.632;10.942;2024-01-06T14:46:53;3.70;;;3.40;;
15553;SDS011;7878;44.632;10.942;2024-01-06T14:49:19;5.00;;;4.20;;
15553;SDS011;7878;44.632;10.942;2024-01-06T14:51:45;4.57;;;3.50;;